Time;durP1;ratioP1;P1;durP2;ratioP2;P2;SDS_P1;SDS_P2;PMS_P1;PMS_P2;Temp;Humidity;BMP_temperature;BMP_pressure;BME280_temperature;BME280_humidity;BME280_pressure;Samples;Min_cycle;Max_cycle;Signal;HPM_P1;HPM_P2
2024/01/07 00:02:01;;;;;;;28.40;12.80;;;;;;;5.75;79.09;95998.03;4981938;28;20059;-82
2024/01/07 00:04:34;;;;;;;15.82;11.68;;;;;;;5.74;79.05;95999.00;4992448;23;20051;-80
2024/01/07 00:07:01;;;;;;;16.08;11.48;;;;;;;5.73;79.02;95999.19;4982138;28;20070;-80
2024/01/07 00:09:29;;;;;;;19.20;12.70;;;;;;;5.72;78.27;96003.53;4981635;28;20573;-82
2024/01/07 00:11:56;;;;;;;17.17;12.38;;;;;;;5.67;78.17;95998.06;4981495;28;20054;-83
2024/01/07 00:14:25;;;;;;;18.42;13.13;;;;;;;5.65;78.94;96007.78;4981558;28;20493;-83
2024/01/07 00:16:53;;;;;;;17.50;12.43;;;;;;;5.68;79.15;96004.84;4981480;28;20106;-79
2024/01/07 00:19:20;;;;;;;16.95;12.38;;;;;;;5.71;78.96;96014.88;4980007;28;20058;-79
2024/01/07 00:21:49;;;;;;;19.17;13.32;;;;;;;5.71;77.75;96003.72;4980974;28;20051;-80
2024/01/07 00:24:17;;;;;;;17.48;12.40;;;;;;;5.70;78.51;96013.25;4981025;28;20137;-83
2024/01/07 00:26:44;;;;;;;18.50;12.35;;;;;;;5.69;79.22;96011.63;4980644;28;20089;-81
2024/01/07 00:29:12;;;;;;;17.45;12.43;;;;;;;5.69;80.07;96006.47;4980729;28;20134;-80
2024/01/07 00:31:41;;;;;;;20.95;13.25;;;;;;;5.71;79.93;96011.50;4980235;28;20057;-79
2024/01/07 00:34:09;;;;;;;20.25;12.40;;;;;;;5.66;79.72;96005.97;4980333;28;20054;-79
2024/01/07 00:36:36;;;;;;;18.48;13.07;;;;;;;5.64;79.10;96003.56;4980356;28;20483;-79
2024/01/07 00:39:04;;;;;;;20.35;13.50;;;;;;;5.64;78.46;96003.56;4980611;28;20050;-81
2024/01/07 00:41:32;;;;;;;18.10;12.15;;;;;;;5.67;79.05;96007.59;4979754;28;20133;-80
2024/01/07 00:43:59;;;;;;;20.85;12.30;;;;;;;5.68;78.94;96009.22;4979276;28;20050;-86
2024/01/07 00:46:27;;;;;;;16.58;12.18;;;;;;;5.66;78.64;96009.38;4979342;28;20138;-79
2024/01/07 00:48:56;;;;;;;19.08;13.30;;;;;;;5.69;79.39;96010.84;4979782;28;20133;-85
2024/01/07 00:51:23;;;;;;;18.30;13.30;;;;;;;5.72;79.28;96010.50;4979006;28;20434;-79
2024/01/07 00:53:51;;;;;;;21.88;12.70;;;;;;;5.72;79.06;96006.13;4978607;28;20514;-80
2024/01/07 00:56:18;;;;;;;19.30;11.80;;;;;;;5.71;80.09;96011.50;4979407;28;20521;-78
2024/01/07 00:58:46;;;;;;;17.65;12.82;;;;;;;5.71;79.78;96009.69;4979002;28;20141;-81
2024/01/07 01:01:14;;;;;;;17.38;12.55;;;;;;;5.73;80.01;96015.53;4978995;28;20129;-80
2024/01/07 01:03:41;;;;;;;20.08;13.80;;;;;;;5.78;80.66;96010.63;4978063;28;20059;-80
2024/01/07 01:06:10;;;;;;;17.35;12.25;;;;;;;5.75;79.32;96018.75;4978699;28;20086;-81
2024/01/07 01:08:38;;;;;;;19.38;13.05;;;;;;;5.74;79.42;96017.13;4979212;28;20087;-79
2024/01/07 01:11:05;;;;;;;19.63;12.82;;;;;;;5.72;78.58;96016.47;4978884;28;20059;-78
2024/01/07 01:13:33;;;;;;;19.60;13.88;;;;;;;5.69;79.52;96016.81;4978477;28;20077;-82
2024/01/07 01:16:01;;;;;;;17.77;12.65;;;;;;;5.71;79.93;96014.88;4978526;28;20059;-83
2024/01/07 01:18:28;;;;;;;18.15;12.75;;;;;;;5.71;80.93;96020.06;4978617;28;20074;-85
2024/01/07 01:20:57;;;;;;;16.75;12.93;;;;;;;5.71;79.79;96021.84;4978713;28;20050;-81
2024/01/07 01:23:25;;;;;;;19.23;12.35;;;;;;;5.69;78.84;96019.41;4977885;28;20082;-78
2024/01/07 01:25:53;;;;;;;19.08;13.38;;;;;;;5.72;78.69;96026.03;4978231;28;20057;-85
2024/01/07 01:28:20;;;;;;;18.33;12.60;;;;;;;5.72;78.16;96026.81;4977995;28;20126;-78
2024/01/07 01:30:48;;;;;;;18.48;13.30;;;;;;;5.67;77.39;96029.13;4978189;28;20141;-78
2024/01/07 01:33:16;;;;;;;16.50;11.80;;;;;;;5.61;77.80;96024.59;4977996;28;20078;-79
2024/01/07 01:35:43;;;;;;;18.48;12.90;;;;;;;5.62;78.20;96026.22;4977451;28;20055;-78
2024/01/07 01:38:11;;;;;;;17.25;12.20;;;;;;;5.65;79.51;96020.72;4977584;28;20057;-79
2024/01/07 01:40:40;;;;;;;19.30;13.02;;;;;;;5.66;79.01;96021.50;4977915;28;20525;-79
2024/01/07 01:43:07;;;;;;;16.75;12.23;;;;;;;5.65;78.69;96028.47;4977264;28;20137;-81
2024/01/07 01:45:35;;;;;;;16.70;11.35;;;;;;;5.64;79.67;96026.03;4976867;28;20058;-78
2024/01/07 01:48:03;;;;;;;15.80;11.38;;;;;;;5.67;79.88;96029.13;4977265;28;20054;-81
2024/01/07 01:50:31;;;;;;;17.30;12.07;;;;;;;5.68;78.59;96029.91;4976329;28;20109;-82
2024/01/07 01:52:58;;;;;;;15.32;11.95;;;;;;;5.64;78.40;96023.44;4975753;28;20054;-78
2024/01/07 01:55:26;;;;;;;16.02;12.18;;;;;;;5.63;78.68;96025.22;4979720;28;20085;-81
2024/01/07 01:57:56;;;;;;;17.67;12.52;;;;;;;5.65;78.58;96027.66;4981413;28;20050;-82
2024/01/07 02:00:24;;;;;;;16.45;12.25;;;;;;;5.69;79.22;96022.00;4981121;28;20054;-84
2024/01/07 02:02:51;;;;;;;17.00;12.20;;;;;;;5.69;78.75;96026.38;4981590;28;20162;-84
2024/01/07 02:05:19;;;;;;;16.70;11.68;;;;;;;5.70;79.77;96023.59;4981043;28;20051;-85
2024/01/07 02:07:47;;;;;;;15.27;11.30;;;;;;;5.73;81.00;96025.88;4981045;28;20077;-82
2024/01/07 02:10:14;;;;;;;16.70;12.30;;;;;;;5.75;80.81;96025.69;4981725;28;20475;-85
2024/01/07 02:12:42;;;;;;;17.17;12.20;;;;;;;5.69;79.31;96022.00;4981479;28;20053;-83
2024/01/07 02:15:11;;;;;;;17.70;12.35;;;;;;;5.65;78.55;96025.88;4981267;28;20581;-82
2024/01/07 02:17:38;;;;;;;18.10;12.95;;;;;;;5.60;78.16;96024.75;4980897;28;20047;-84
2024/01/07 02:20:07;;;;;;;15.00;11.05;;;;;;;5.60;79.88;96022.16;4980859;28;20057;-81
2024/01/07 02:22:35;;;;;;;17.50;13.27;;;;;;;5.66;79.83;96024.09;4980316;28;20058;-84
2024/01/07 02:25:04;;;;;;;19.73;13.02;;;;;;;5.62;78.23;96030.56;4980305;28;20137;-83
2024/01/07 02:27:32;;;;;;;17.98;12.27;;;;;;;5.56;78.42;96026.88;4980676;28;20101;-81
2024/01/07 02:30:00;;;;;;;17.15;12.32;;;;;;;5.52;78.60;96033.34;4981184;28;20102;-81
2024/01/07 02:32:27;;;;;;;17.52;12.75;;;;;;;5.47;78.26;96025.28;4980002;28;20118;-80
2024/01/07 02:34:55;;;;;;;18.55;13.27;;;;;;;5.47;79.18;96025.28;4980782;28;20046;-84
2024/01/07 02:37:23;;;;;;;16.30;11.57;;;;;;;5.48;78.43;96025.09;4980088;28;20581;-80
2024/01/07 02:39:50;;;;;;;17.33;12.88;;;;;;;5.47;77.99;96022.69;4980438;28;20137;-81
2024/01/07 02:42:29;;;;;;;18.75;12.45;;;;;;;5.48;79.28;96024.28;4982361;28;20056;-81
2024/01/07 02:44:56;;;;;;;21.13;13.65;;;;;;;5.47;78.71;96020.09;4983659;28;20050;-84
2024/01/07 02:47:24;;;;;;;19.08;12.48;;;;;;;5.46;78.06;96021.06;4982998;28;20514;-84
2024/01/07 02:49:51;;;;;;;17.73;12.88;;;;;;;5.45;77.57;96022.03;4982950;28;20055;-80
2024/01/07 02:52:19;;;;;;;19.05;11.48;;;;;;;5.44;77.67;96025.59;4982647;28;20051;-81
2024/01/07 02:54:47;;;;;;;16.42;11.80;;;;;;;5.47;78.84;96020.09;4983291;28;20089;-84
2024/01/07 02:57:14;;;;;;;18.50;12.77;;;;;;;5.50;78.91;96030.09;4982811;28;20046;-83
2024/01/07 02:59:43;;;;;;;16.48;12.20;;;;;;;5.49;78.10;96026.72;4982929;28;20118;-83
2024/01/07 03:02:10;;;;;;;19.60;12.80;;;;;;;5.46;77.61;96026.22;4982243;28;20051;-82
2024/01/07 03:04:38;;;;;;;18.65;12.13;;;;;;;5.47;78.94;96025.28;4981987;28;20503;-80
2024/01/07 03:07:05;;;;;;;17.17;12.15;;;;;;;5.45;78.86;96029.81;4982187;28;20055;-79
2024/01/07 03:09:33;;;;;;;16.40;12.10;;;;;;;5.46;78.97;96034.00;4982319;28;20429;-79
2024/01/07 03:12:00;;;;;;;17.40;11.73;;;;;;;5.46;77.97;96026.22;4981276;28;20055;-82
2024/01/07 03:14:28;;;;;;;18.02;11.48;;;;;;;5.43;77.80;96029.97;4982206;28;20086;-79
2024/01/07 03:16:57;;;;;;;15.95;11.88;;;;;;;5.39;77.20;96033.03;4981753;28;20053;-80
2024/01/07 03:19:24;;;;;;;15.20;10.93;;;;;;;5.36;77.02;96034.97;4981507;28;20498;-78
2024/01/07 03:21:52;;;;;;;16.13;11.70;;;;;;;5.31;76.98;96042.44;4981381;28;20062;-81
2024/01/07 03:24:20;;;;;;;16.88;11.68;;;;;;;5.32;78.85;96036.25;4981260;28;20062;-80
2024/01/07 03:26:47;;;;;;;14.27;10.73;;;;;;;5.37;80.20;96034.00;4981019;28;20137;-82
2024/01/07 03:29:15;;;;;;;15.15;10.93;;;;;;;5.43;79.65;96042.09;4981416;28;20073;-78
2024/01/07 03:31:42;;;;;;;15.27;10.60;;;;;;;5.41;78.25;96044.03;4981101;28;20078;-82
2024/01/07 03:34:12;;;;;;;15.13;11.23;;;;;;;5.42;78.65;96037.88;4980641;28;20506;-78
2024/01/07 03:36:39;;;;;;;16.00;11.57;;;;;;;5.40;77.83;96047.56;4980937;28;20514;-79
2024/01/07 03:39:07;;;;;;;16.50;11.43;;;;;;;5.35;77.58;96037.72;4979935;28;20415;-81
2024/01/07 03:41:35;;;;;;;16.83;11.88;;;;;;;5.31;77.68;96042.44;4979746;28;20054;-80
2024/01/07 03:44:02;;;;;;;17.35;12.07;;;;;;;5.28;78.15;96045.31;4980049;28;20589;-78
2024/01/07 03:46:30;;;;;;;14.65;11.10;;;;;;;5.29;77.93;96044.38;4979787;28;20055;-79
2024/01/07 03:48:58;;;;;;;16.75;12.25;;;;;;;5.28;78.27;96042.72;4980015;28;20502;-79
2024/01/07 03:51:27;;;;;;;17.85;10.98;;;;;;;5.26;77.78;96047.25;4979605;28;20133;-78
2024/01/07 03:53:54;;;;;;;13.00;10.77;;;;;;;5.26;77.57;96047.25;4979752;28;20054;-78
2024/01/07 03:56:22;;;;;;;15.05;10.80;;;;;;;5.29;78.77;96052.13;4979804;28;20082;-78
2024/01/07 03:58:50;;;;;;;14.70;10.60;;;;;;;5.33;79.59;96042.25;4979690;28;20078;-84
2024/01/07 04:01:18;;;;;;;14.73;10.68;;;;;;;5.39;78.76;96045.97;4978871;28;20137;-80
2024/01/07 04:03:46;;;;;;;14.63;11.20;;;;;;;5.37;77.78;96052.09;4979118;28;20047;-86
2024/01/07 04:06:14;;;;;;;16.58;12.02;;;;;;;5.34;78.36;96047.25;4982249;28;20059;-83
2024/01/07 04:08:43;;;;;;;15.88;11.25;;;;;;;5.32;77.82;96050.97;4983945;28;20050;-83
2024/01/07 04:11:10;;;;;;;14.38;11.25;;;;;;;5.27;77.93;96058.41;4983878;28;20047;-84
2024/01/07 04:13:38;;;;;;;15.23;11.48;;;;;;;5.28;77.95;96060.84;4984130;28;20110;-82
2024/01/07 04:16:05;;;;;;;15.27;11.63;;;;;;;5.30;77.94;96058.09;4984996;28;20125;-82
2024/01/07 04:18:33;;;;;;;14.85;11.73;;;;;;;5.29;77.23;96059.88;4983360;28;20050;-80
2024/01/07 04:21:01;;;;;;;16.98;11.98;;;;;;;5.28;77.95;96055.66;4984190;28;20054;-80
2024/01/07 04:23:28;;;;;;;15.20;11.65;;;;;;;5.30;78.40;96063.28;4983853;28;20051;-82
2024/01/07 04:25:57;;;;;;;15.38;11.60;;;;;;;5.29;77.51;96065.06;4983609;28;20073;-85
2024/01/07 04:28:25;;;;;;;15.35;11.70;;;;;;;5.27;77.13;96068.75;4984198;28;20077;-83
2024/01/07 04:30:52;;;;;;;16.67;12.35;;;;;;;5.27;78.63;96068.75;4984162;28;20042;-84
2024/01/07 04:33:20;;;;;;;14.55;10.80;;;;;;;5.27;78.69;96074.75;4982797;28;20411;-82
2024/01/07 04:35:48;;;;;;;14.90;11.73;;;;;;;5.27;78.33;96064.41;4983262;28;20049;-80
2024/01/07 04:38:15;;;;;;;16.58;12.25;;;;;;;5.28;77.65;96067.78;4983431;28;20053;-82
2024/01/07 04:40:43;;;;;;;17.25;11.60;;;;;;;5.25;77.03;96076.69;4983825;28;20050;-84
2024/01/07 04:43:11;;;;;;;17.45;11.90;;;;;;;5.23;78.25;96078.63;4982538;28;20089;-82
2024/01/07 04:45:39;;;;;;;16.10;11.88;;;;;;;5.25;78.96;96070.72;4982713;28;20050;-82
2024/01/07 04:48:07;;;;;;;15.18;10.88;;;;;;;5.23;78.19;96083.00;4982354;28;20047;-79
2024/01/07 04:50:35;;;;;;;15.57;11.70;;;;;;;5.25;77.81;96081.06;4982169;28;20467;-82
2024/01/07 04:53:03;;;;;;;16.95;12.65;;;;;;;5.25;77.24;96081.06;4981679;28;20050;-80
2024/01/07 04:55:30;;;;;;;15.98;11.52;;;;;;;5.24;78.64;96085.41;4981999;28;20078;-81
2024/01/07 04:57:58;;;;;;;17.23;11.68;;;;;;;5.31;78.30;96090.72;4981284;28;20047;-82
2024/01/07 05:00:27;;;;;;;15.80;11.23;;;;;;;5.28;77.18;96086.69;4980982;28;20050;-80
2024/01/07 05:02:55;;;;;;;15.85;12.10;;;;;;;5.27;77.88;96085.09;4980478;28;20058;-80
2024/01/07 05:05:22;;;;;;;17.00;12.45;;;;;;;5.26;77.40;96098.97;4980442;28;20054;-79
2024/01/07 05:07:50;;;;;;;17.15;12.55;;;;;;;5.21;77.38;96090.91;4981158;28;20574;-79
2024/01/07 05:10:17;;;;;;;20.35;13.18;;;;;;;5.19;77.28;96097.22;4981227;28;20133;-84
2024/01/07 05:12:45;;;;;;;20.52;13.10;;;;;;;5.16;76.67;96096.56;4980252;28;20141;-85
2024/01/07 05:15:13;;;;;;;16.23;11.82;;;;;;;5.13;76.83;96101.22;4981061;28;20057;-78
2024/01/07 05:17:42;;;;;;;14.43;11.43;;;;;;;5.11;76.73;96101.38;4979791;28;20054;-81
2024/01/07 05:20:10;;;;;;;14.98;11.55;;;;;;;5.10;76.66;96106.72;4980013;28;20073;-83
2024/01/07 05:22:38;;;;;;;15.05;11.95;;;;;;;5.09;76.34;96107.69;4979826;28;20050;-79
2024/01/07 05:25:06;;;;;;;17.30;12.00;;;;;;;5.07;76.10;96107.03;4979447;28;20146;-82
2024/01/07 05:27:33;;;;;;;18.25;13.07;;;;;;;5.05;76.12;96112.38;4980070;28;20109;-79
2024/01/07 05:30:01;;;;;;;15.13;11.48;;;;;;;5.04;75.94;96110.75;4979890;28;20046;-82
2024/01/07 05:32:28;;;;;;;16.40;11.63;;;;;;;5.05;76.12;96119.31;4979429;28;20046;-80
2024/01/07 05:34:57;;;;;;;15.07;11.48;;;;;;;5.03;75.10;96118.66;4979617;28;20047;-78
2024/01/07 05:37:25;;;;;;;17.20;11.60;;;;;;;5.00;75.52;96124.94;4979589;28;20055;-81
2024/01/07 05:39:52;;;;;;;14.93;11.68;;;;;;;5.00;76.00;96124.94;4978923;28;20104;-82
2024/01/07 05:42:20;;;;;;;15.38;11.68;;;;;;;4.99;75.77;96123.34;4978453;28;20495;-80
2024/01/07 05:44:48;;;;;;;15.40;11.18;;;;;;;4.97;75.51;96119.31;4978855;28;20050;-82
2024/01/07 05:47:16;;;;;;;18.13;11.32;;;;;;;4.96;75.10;96131.41;4978815;28;20086;-81
2024/01/07 05:49:44;;;;;;;15.13;11.13;;;;;;;4.95;75.56;96125.44;4978299;28;20524;-80
2024/01/07 05:52:13;;;;;;;15.48;10.75;;;;;;;4.92;75.10;96128.34;4978381;28;20403;-80
2024/01/07 05:54:41;;;;;;;16.00;11.20;;;;;;;4.90;75.42;96130.28;4978092;28;20418;-78
2024/01/07 05:57:08;;;;;;;13.48;9.70;;;;;;;4.91;75.44;96131.06;4978431;28;20426;-79
2024/01/07 05:59:36;;;;;;;18.70;11.10;;;;;;;4.92;75.06;96128.34;4978514;28;20054;-80
2024/01/07 06:02:04;;;;;;;15.98;11.38;;;;;;;4.94;75.31;96134.16;4978209;28;20067;-80
2024/01/07 06:34:15;;;;;;;12.63;9.00;;;;;;;4.80;73.81;96159.78;5336890;23;20048;-81
2024/01/07 06:36:44;;;;;;;12.88;9.98;;;;;;;4.78;73.76;96167.69;4963953;28;20043;-81
2024/01/07 06:39:12;;;;;;;11.32;9.23;;;;;;;4.80;74.46;96164.97;4963851;28;20035;-81
2024/01/07 06:41:42;;;;;;;11.38;9.05;;;;;;;4.79;73.96;96171.91;4963835;28;20054;-81
2024/01/07 06:44:10;;;;;;;12.93;9.27;;;;;;;4.76;73.91;96177.38;4963893;28;20044;-81
2024/01/07 06:46:39;;;;;;;12.23;8.98;;;;;;;4.70;73.48;96178.00;4963809;28;20032;-81
2024/01/07 06:49:08;;;;;;;14.60;9.65;;;;;;;4.62;73.60;96185.72;4963697;28;20050;-81
2024/01/07 06:51:39;;;;;;;12.50;9.25;;;;;;;4.56;73.67;96179.41;4963771;28;20032;-81
2024/01/07 06:54:11;;;;;;;13.80;9.40;;;;;;;4.50;73.59;96186.00;4963687;28;20055;-81
2024/01/07 06:56:44;;;;;;;12.77;9.50;;;;;;;4.45;73.85;96185.63;4963875;28;20035;-81
2024/01/07 06:59:12;;;;;;;15.07;10.70;;;;;;;4.42;74.46;96191.13;4963611;28;20047;-81
2024/01/07 07:01:43;;;;;;;11.13;8.57;;;;;;;4.43;74.26;96195.31;4963782;28;20046;-81
2024/01/07 07:04:12;;;;;;;14.48;9.73;;;;;;;4.45;74.54;96201.13;4963664;28;20070;-81
2024/01/07 07:06:43;;;;;;;13.10;9.18;;;;;;;4.49;75.47;96206.81;4963624;28;20039;-81
2024/01/07 07:09:19;;;;;;;11.48;8.60;;;;;;;4.50;75.18;96201.50;4963681;28;20052;-81
2024/01/07 07:11:53;;;;;;;10.98;8.70;;;;;;;4.50;74.47;96205.84;4963087;28;20067;-81
2024/01/07 07:14:26;;;;;;;11.23;8.35;;;;;;;4.51;74.75;96205.69;4963042;28;20087;-80
2024/01/07 07:16:55;;;;;;;11.55;8.07;;;;;;;4.52;74.14;96204.72;4963140;29;20059;-81
2024/01/07 07:19:29;;;;;;;10.07;6.97;;;;;;;4.53;73.85;96215.88;4962963;28;20047;-81
2024/01/07 07:22:07;;;;;;;17.85;7.90;;;;;;;4.50;73.32;96217.00;4962727;28;20040;-81
2024/01/07 07:24:41;;;;;;;10.13;7.30;;;;;;;4.51;73.47;96213.44;4963045;28;20048;-81
2024/01/07 07:27:10;;;;;;;10.82;7.72;;;;;;;4.52;73.53;96227.16;4962732;28;20036;-82
2024/01/07 07:29:42;;;;;;;8.77;7.00;;;;;;;4.51;72.44;96228.94;4962909;28;20062;-83
2024/01/07 07:32:13;;;;;;;9.52;6.43;;;;;;;4.49;72.83;96236.03;4947056;29;20038;-81
2024/01/07 07:34:46;;;;;;;9.32;6.85;;;;;;;4.54;72.87;96241.53;4962785;28;20055;-81
2024/01/07 07:37:18;;;;;;;7.18;6.13;;;;;;;4.57;72.40;96243.03;4963017;28;20099;-81
2024/01/07 07:39:50;;;;;;;8.18;5.68;;;;;;;4.58;71.55;96249.00;4963117;28;20056;-81
2024/01/07 07:42:21;;;;;;;7.20;5.90;;;;;;;4.48;71.28;96243.91;4962596;28;20031;-81
2024/01/07 07:44:53;;;;;;;7.57;5.60;;;;;;;4.43;71.22;96246.16;4962853;28;20091;-81
2024/01/07 07:47:22;;;;;;;8.13;6.13;;;;;;;4.35;70.99;96246.91;4962391;28;20111;-81
2024/01/07 07:49:51;;;;;;;8.18;5.65;;;;;;;4.32;70.81;96252.38;4962718;28;20028;-81
2024/01/07 07:52:25;;;;;;;6.63;4.93;;;;;;;4.32;70.68;96253.19;4962410;28;20040;-81
2024/01/07 07:54:58;;;;;;;7.63;5.05;;;;;;;4.31;70.11;96261.09;4961042;28;20085;-81
2024/01/07 07:57:39;;;;;;;5.47;4.50;;;;;;;4.26;69.89;96260.72;5281917;23;20052;-81
2024/01/07 08:00:12;;;;;;;6.55;5.32;;;;;;;4.28;70.94;96263.97;4961800;29;20062;-81
2024/01/07 08:21:01;;;;;;;6.22;4.57;;;;;;;4.00;69.42;96276.16;4940968;28;20055;-81
2024/01/07 08:23:29;;;;;;;7.03;4.95;;;;;;;3.96;69.48;96278.25;4942118;28;20032;-81
2024/01/07 08:25:59;;;;;;;6.20;4.68;;;;;;;3.96;69.05;96280.00;5058817;23;20036;-81
2024/01/07 08:37:01;;;;;;;5.03;4.38;;;;;;;3.91;68.39;96294.19;4941575;28;20660;-81
2024/01/07 08:39:37;;;;;;;5.95;4.32;;;;;;;3.90;68.74;96291.75;4942139;28;20047;-81
2024/01/07 08:42:13;;;;;;;5.88;4.55;;;;;;;3.89;67.98;96303.00;5175972;23;20040;-82
2024/01/07 08:44:44;;;;;;;6.07;4.32;;;;;;;3.90;68.34;96314.97;4942572;28;20055;-81
2024/01/07 08:50:01;;;;;;;6.30;4.32;;;;;;;3.74;67.77;96313.03;5869966;23;20045;-81
2024/01/07 08:52:36;;;;;;;6.10;4.57;;;;;;;3.68;68.08;96309.25;4944183;23;20032;-81
2024/01/07 09:30:15;;;;;;;8.20;5.38;;;;;;;3.46;67.88;96341.44;5842518;23;21254;-79
2024/01/07 09:32:45;;;;;;;9.00;6.47;;;;;;;3.40;67.85;96341.19;4926973;28;20036;-80
2024/01/07 09:35:13;;;;;;;10.10;6.93;;;;;;;3.38;68.53;96343.09;4922565;29;20044;-80
2024/01/07 09:37:41;;;;;;;8.80;6.25;;;;;;;3.36;68.19;96345.81;4920849;29;20153;-80
2024/01/07 09:40:10;;;;;;;8.60;5.97;;;;;;;3.31;67.89;96342.84;4922425;29;20068;-81
2024/01/07 09:42:38;;;;;;;8.30;5.97;;;;;;;3.25;68.29;96341.66;4920058;29;20037;-83
2024/01/07 09:45:07;;;;;;;9.85;6.90;;;;;;;3.22;68.45;96348.88;4921564;29;20044;-83
2024/01/07 09:47:36;;;;;;;9.68;7.28;;;;;;;3.22;68.30;96354.03;4906624;29;20055;-83
2024/01/07 12:03:00;;;;;;;14.65;9.77;;;;;;;2.26;71.59;96387.53;5789553;23;20053;-80
2024/01/07 12:49:31;;;;;;;17.20;11.25;;;;;;;1.95;70.39;96422.88;4896991;29;20064;-80
2024/01/07 12:51:59;;;;;;;16.13;10.45;;;;;;;1.91;70.23;96424.88;4902957;29;20056;-84
2024/01/07 12:54:26;;;;;;;16.38;10.43;;;;;;;1.86;69.78;96416.75;4910993;29;20504;-81
2024/01/07 12:56:54;;;;;;;15.35;10.05;;;;;;;1.83;69.85;96409.28;4910575;29;20072;-80
2024/01/07 12:59:21;;;;;;;14.40;9.85;;;;;;;1.82;70.01;96420.53;4897417;29;20056;-79
2024/01/07 13:01:50;;;;;;;14.13;9.23;;;;;;;1.82;70.35;96423.91;4896476;29;20131;-79
2024/01/07 13:04:20;;;;;;;17.08;10.38;;;;;;;1.82;70.08;96423.91;4899388;29;20064;-80
2024/01/07 13:06:49;;;;;;;18.58;11.98;;;;;;;1.81;70.50;96429.97;4887369;29;20055;-80
2024/01/07 13:09:17;;;;;;;17.27;11.05;;;;;;;1.80;70.79;96427.56;4887910;29;20140;-80
2024/01/07 13:11:44;;;;;;;18.63;10.73;;;;;;;1.76;70.82;96429.56;4899065;29;20503;-79
2024/01/07 13:14:12;;;;;;;16.08;11.25;;;;;;;1.74;70.90;96438.38;4899253;29;20053;-80
2024/01/07 13:16:39;;;;;;;15.82;11.23;;;;;;;1.71;71.47;96443.78;4898290;29;20135;-80
2024/01/07 13:19:10;;;;;;;16.13;11.45;;;;;;;1.70;71.36;96444.72;4898724;29;20052;-79
2024/01/07 13:21:39;;;;;;;17.70;11.40;;;;;;;1.67;71.82;96447.56;4898560;29;20044;-80
2024/01/07 13:24:10;;;;;;;19.63;11.02;;;;;;;1.63;71.64;96447.78;4898750;29;20112;-80
2024/01/07 13:26:38;;;;;;;21.40;12.75;;;;;;;1.62;71.79;96451.31;4897793;29;20062;-81
2024/01/07 13:29:05;;;;;;;17.42;11.18;;;;;;;1.60;71.88;96450.63;4889040;29;20144;-81
2024/01/07 13:31:33;;;;;;;15.90;11.27;;;;;;;1.62;72.29;96448.75;4891563;29;20117;-80
2024/01/07 13:34:01;;;;;;;17.95;11.57;;;;;;;1.63;72.47;96457.28;4897991;29;20060;-79
2024/01/07 13:36:29;;;;;;;15.65;11.10;;;;;;;1.64;72.35;96464.06;4898384;29;20064;-80
2024/01/07 13:38:56;;;;;;;17.90;11.45;;;;;;;1.61;72.58;96457.38;4898550;29;20110;-80
2024/01/07 13:41:28;;;;;;;15.77;10.15;;;;;;;1.57;72.52;96458.59;4893400;29;20048;-80
2024/01/07 13:43:56;;;;;;;17.00;11.82;;;;;;;1.57;72.89;96458.59;4881673;29;20676;-82
2024/01/07 13:46:25;;;;;;;15.25;10.65;;;;;;;1.58;73.04;96462.00;4880689;29;20108;-80
2024/01/07 13:48:52;;;;;;;15.20;10.98;;;;;;;1.57;73.11;96468.88;4879577;29;20505;-80
2024/01/07 13:51:22;;;;;;;17.00;10.95;;;;;;;1.58;73.23;96469.72;4879440;29;20513;-80
2024/01/07 13:53:50;;;;;;;17.50;11.90;;;;;;;1.55;72.70;96470.78;4887900;29;20068;-79
2024/01/07 13:56:18;;;;;;;14.18;10.02;;;;;;;1.54;72.77;96464.00;4892530;29;20132;-79
2024/01/07 13:58:49;;;;;;;13.30;9.43;;;;;;;1.52;72.41;96471.03;4878983;29;20264;-79
2024/01/07 14:01:17;;;;;;;14.18;9.38;;;;;;;1.44;72.05;96474.25;4879118;29;20128;-79
2024/01/07 14:03:45;;;;;;;13.70;9.63;;;;;;;1.41;72.25;96482.19;4879028;29;20045;-78
2024/01/07 14:06:12;;;;;;;12.98;8.85;;;;;;;1.37;72.13;96478.25;4878919;29;20060;-78
2024/01/07 14:08:40;;;;;;;12.05;8.85;;;;;;;1.38;72.19;96485.03;4882989;29;20108;-80
2024/01/07 14:11:09;;;;;;;13.90;8.90;;;;;;;1.42;71.48;96496.69;4897951;29;20088;-78
2024/01/07 14:13:37;;;;;;;11.73;8.30;;;;;;;1.41;71.74;96494.25;4896956;29;20139;-78
2024/01/07 14:16:07;;;;;;;13.05;8.57;;;;;;;1.39;71.57;96501.28;4891999;29;20480;-77
2024/01/07 14:18:35;;;;;;;11.52;8.18;;;;;;;1.40;71.57;96502.88;4893985;29;20055;-77
2024/01/07 14:21:02;;;;;;;13.70;9.10;;;;;;;1.38;71.26;96504.78;4878692;29;20085;-78
2024/01/07 14:23:31;;;;;;;14.60;8.77;;;;;;;1.39;72.01;96507.22;4878530;29;20156;-77
2024/01/07 14:25:58;;;;;;;15.57;10.43;;;;;;;1.39;71.71;96519.25;4878659;29;20053;-81
2024/01/07 14:28:26;;;;;;;15.95;9.65;;;;;;;1.34;71.92;96508.56;4889777;29;20060;-77
2024/01/07 14:30:54;;;;;;;13.30;8.85;;;;;;;1.33;71.68;96512.06;4882071;29;20045;-76
2024/01/07 14:33:23;;;;;;;12.07;8.80;;;;;;;1.32;72.49;96516.38;4878433;29;20089;-77
2024/01/07 14:35:52;;;;;;;14.43;8.75;;;;;;;1.37;72.58;96518.56;4878410;29;20067;-76
2024/01/07 14:38:19;;;;;;;13.10;8.48;;;;;;;1.33;72.06;96518.00;4890733;29;20429;-78
2024/01/07 14:40:47;;;;;;;13.20;9.18;;;;;;;1.32;71.90;96515.56;4882809;29;20085;-79
2024/01/07 14:43:14;;;;;;;14.63;9.32;;;;;;;1.30;72.35;96520.03;4895621;29;20540;-78
2024/01/07 14:45:42;;;;;;;14.00;8.98;;;;;;;1.29;72.27;96528.66;4904351;29;20124;-78
2024/01/07 14:48:10;;;;;;;12.20;8.60;;;;;;;1.27;72.13;96535.69;4904297;29;20056;-80
2024/01/07 14:50:39;;;;;;;14.73;8.73;;;;;;;1.19;72.50;96537.13;4904375;29;20080;-78
2024/01/07 14:53:08;;;;;;;13.85;8.95;;;;;;;1.14;72.90;96528.97;4903709;29;20726;-79
2024/01/07 14:55:36;;;;;;;13.13;8.27;;;;;;;1.10;72.87;96534.50;4904437;29;20132;-79
2024/01/07 14:58:04;;;;;;;13.32;8.68;;;;;;;1.07;72.67;96537.31;4903201;29;20073;-78
2024/01/07 15:00:31;;;;;;;12.68;8.50;;;;;;;1.05;72.63;96545.16;4903537;29;20052;-79
2024/01/07 15:02:59;;;;;;;12.25;7.65;;;;;;;1.04;73.60;96543.50;4902597;29;20469;-79
2024/01/07 15:05:27;;;;;;;13.23;7.90;;;;;;;1.06;73.60;96539.06;4904119;29;20052;-79
2024/01/07 15:07:56;;;;;;;12.70;8.32;;;;;;;1.08;73.29;96552.59;4904468;29;20049;-78
2024/01/07 15:10:24;;;;;;;11.82;7.65;;;;;;;1.08;72.59;96552.59;4903892;29;20148;-79
2024/01/07 15:12:51;;;;;;;10.95;7.82;;;;;;;1.09;72.68;96556.78;4903390;29;20049;-78
2024/01/07 15:15:29;;;;;;;15.25;9.60;;;;;;;1.15;72.95;96566.56;4904083;29;20056;-79
2024/01/07 15:17:57;;;;;;;14.10;8.18;;;;;;;1.16;72.71;96560.50;4903201;29;20048;-80
2024/01/07 15:20:25;;;;;;;14.63;9.18;;;;;;;1.15;72.24;96561.44;4904532;29;20083;-79
2024/01/07 15:22:53;;;;;;;13.48;8.55;;;;;;;1.14;72.33;96570.09;4904669;29;20052;-80
2024/01/07 15:25:22;;;;;;;12.65;8.70;;;;;;;1.14;72.07;96574.41;4902413;29;20419;-80
2024/01/07 15:27:50;;;;;;;13.82;7.90;;;;;;;1.11;71.92;96578.03;4904318;29;20423;-80
2024/01/07 15:30:17;;;;;;;12.73;8.80;;;;;;;1.08;72.03;96570.59;4904517;29;20191;-83
2024/01/07 15:32:45;;;;;;;15.82;9.07;;;;;;;1.05;71.55;96567.44;4905421;29;20112;-80
2024/01/07 15:35:13;;;;;;;13.50;8.55;;;;;;;1.05;71.90;96581.13;4904919;29;20059;-79
2024/01/07 15:37:41;;;;;;;11.90;8.07;;;;;;;1.05;71.91;96580.28;4905333;29;20072;-80
2024/01/07 15:40:09;;;;;;;13.38;8.10;;;;;;;1.03;71.24;96583.00;4902836;29;20531;-79
2024/01/07 15:42:38;;;;;;;11.85;7.85;;;;;;;0.99;71.54;96587.53;4902743;29;20055;-79
2024/01/07 15:45:06;;;;;;;15.07;8.52;;;;;;;1.02;71.55;96594.19;4902856;29;20052;-79
2024/01/07 15:47:35;;;;;;;13.40;7.78;;;;;;;1.06;71.63;96598.13;4902797;29;20405;-80
2024/01/07 15:50:07;;;;;;;12.77;8.13;;;;;;;1.09;71.28;96597.88;4902567;29;20135;-80
2024/01/07 15:52:34;;;;;;;14.10;8.80;;;;;;;1.06;71.07;96595.56;4902450;29;20044;-77
2024/01/07 15:55:02;;;;;;;12.05;7.88;;;;;;;1.04;71.06;96594.88;4902153;29;20120;-78
2024/01/07 15:57:30;;;;;;;17.15;8.63;;;;;;;1.05;71.13;96603.41;4900951;29;20061;-79
2024/01/07 15:59:59;;;;;;;14.73;8.02;;;;;;;1.05;70.79;96606.81;4900798;29;20112;-81
2024/01/07 16:02:27;;;;;;;10.07;7.60;;;;;;;1.05;70.85;96609.38;4886715;29;20041;-81
2024/01/07 16:04:55;;;;;;;13.63;8.68;;;;;;;1.05;70.93;96611.94;4900199;29;20048;-81
2024/01/07 16:07:23;;;;;;;14.02;9.23;;;;;;;1.02;71.66;96607.84;4900662;29;20053;-81